Time;durP1;ratioP1;P1;durP2;ratioP2;P2;SDS_P1;SDS_P2;PMS_P1;PMS_P2;Temp;Humidity;BMP_temperature;BMP_pressure;BME280_temperature;BME280_humidity;BME280_pressure;Samples;Min_cycle;Max_cycle;Signal;HPM_P1;HPM_P2
2022/11/15 07:30:15;;;;;;;13.95;9.75;;;11.40;98.50;;;;;;5031347;28;20102;-73
2022/11/15 07:32:41;;;;;;;13.70;9.63;;;11.40;98.50;;;;;;5072774;28;20113;-72
2022/11/15 07:35:06;;;;;;;12.85;9.82;;;11.40;98.60;;;;;;5074461;28;20032;-74
2022/11/15 07:37:32;;;;;;;11.40;9.93;;;11.40;98.50;;;;;;5084508;28;20028;-73
2022/11/15 07:39:58;;;;;;;18.70;10.32;;;11.40;98.40;;;;;;5094750;28;20086;-73
2022/11/15 07:45:08;;;;;;;13.18;10.50;;;11.50;98.50;;;;;;5094653;28;20077;-73
2022/11/15 07:47:34;;;;;;;13.60;10.32;;;11.40;98.50;;;;;;5094640;28;20393;-78
2022/11/15 07:49:59;;;;;;;16.83;10.65;;;11.50;98.50;;;;;;5094954;28;20028;-75
2022/11/15 07:52:25;;;;;;;17.83;11.05;;;11.50;98.40;;;;;;5094704;28;20051;-71
2022/11/15 07:54:51;;;;;;;15.90;10.25;;;11.50;98.30;;;;;;5094361;28;20077;-71
2022/11/15 07:57:16;;;;;;;20.33;12.77;;;11.60;98.30;;;;;;5094693;28;20063;-79
2022/11/15 07:59:42;;;;;;;24.08;15.63;;;11.50;98.20;;;;;;5094607;28;20186;-80
2022/11/15 08:02:09;;;;;;;23.35;13.23;;;11.60;98.30;;;;;;5094807;28;20169;-80
2022/11/15 08:04:35;;;;;;;21.67;12.82;;;11.60;98.30;;;;;;5094473;28;20071;-77
2022/11/15 08:07:00;;;;;;;19.83;11.23;;;11.60;98.30;;;;;;5094232;28;20032;-80
2022/11/15 08:09:26;;;;;;;15.38;11.52;;;11.60;98.50;;;;;;5094659;28;20115;-79
2022/11/15 08:11:52;;;;;;;16.50;10.27;;;11.60;98.50;;;;;;5094117;28;20503;-78
2022/11/15 08:14:17;;;;;;;16.92;11.38;;;11.60;98.40;;;;;;5094456;28;20515;-78
2022/11/15 08:16:43;;;;;;;18.17;12.00;;;11.70;98.40;;;;;;5080307;28;20033;-77
2022/11/15 08:19:09;;;;;;;13.50;11.45;;;11.70;98.40;;;;;;5074238;28;20047;-77
2022/11/15 08:21:35;;;;;;;21.02;12.77;;;11.70;98.30;;;;;;5073926;28;20390;-73
2022/11/15 08:24:00;;;;;;;20.38;12.20;;;11.80;98.20;;;;;;5073884;28;20497;-78
2022/11/15 08:26:28;;;;;;;23.23;13.90;;;11.80;98.20;;;;;;5073942;28;20107;-78
2022/11/15 08:28:54;;;;;;;19.77;13.20;;;11.80;98.10;;;;;;5074108;28;20078;-77
2022/11/15 08:31:20;;;;;;;19.63;11.60;;;11.80;98.10;;;;;;5073574;28;20449;-73
2022/11/15 08:33:45;;;;;;;23.88;11.90;;;11.90;98.10;;;;;;5073861;28;20044;-78
2022/11/15 08:36:14;;;;;;;21.02;11.93;;;11.90;98.10;;;;;;5074235;28;20033;-72
2022/11/15 08:38:40;;;;;;;15.88;11.63;;;11.90;98.10;;;;;;5073357;28;20451;-78
2022/11/15 08:41:06;;;;;;;17.50;10.10;;;12.00;98.10;;;;;;5073408;28;20037;-79
2022/11/15 08:43:32;;;;;;;13.98;11.18;;;11.90;98.10;;;;;;5071939;28;20123;-77
2022/11/15 08:45:59;;;;;;;17.67;11.18;;;12.00;98.00;;;;;;5073520;28;20040;-77
2022/11/15 08:48:24;;;;;;;23.70;11.45;;;12.00;98.00;;;;;;5073421;28;20044;-78
2022/11/15 08:50:55;;;;;;;13.77;10.32;;;12.00;97.80;;;;;;5073608;28;20028;-75
2022/11/15 09:50:58;;;;;;;11.95;7.97;;;12.90;96.50;;;;;;2243680;28;22030;-68
2022/11/15 09:53:44;;;;;;;12.93;8.40;;;13.00;96.20;;;;;;5030291;28;20057;-69
2022/11/15 09:56:19;;;;;;;11.70;8.23;;;13.10;96.00;;;;;;5030518;28;20064;-67
2022/11/15 09:59:05;;;;;;;9.75;8.40;;;13.10;95.80;;;;;;5030602;28;20129;-69
2022/11/15 10:01:41;;;;;;;8.82;7.72;;;13.20;95.80;;;;;;5029021;28;20593;-74
2022/11/15 10:04:07;;;;;;;10.93;8.20;;;13.20;95.70;;;;;;5030343;28;20483;-69
2022/11/15 10:06:38;;;;;;;11.88;8.18;;;13.30;95.60;;;;;;5030386;28;20045;-68
2022/11/15 10:09:13;;;;;;;9.65;8.27;;;13.40;95.50;;;;;;5030642;28;20136;-68
2022/11/15 10:11:40;;;;;;;10.65;7.88;;;13.40;95.30;;;;;;5029917;28;20033;-68
2022/11/15 10:14:15;;;;;;;10.20;8.52;;;13.50;95.20;;;;;;5029671;28;20038;-68
2022/11/15 10:16:49;;;;;;;9.15;7.60;;;13.50;95.10;;;;;;5030578;28;20464;-68
2022/11/15 10:19:33;;;;;;;9.98;7.72;;;13.60;95.00;;;;;;5030386;28;20029;-68
2022/11/15 10:22:04;;;;;;;9.23;7.63;;;13.70;94.90;;;;;;5030638;28;20042;-68
2022/11/15 10:24:36;;;;;;;10.48;7.75;;;13.70;94.60;;;;;;5053486;28;20040;-68
2022/11/15 10:27:10;;;;;;;13.82;7.65;;;13.80;94.40;;;;;;5071689;28;20482;-69
2022/11/15 10:29:36;;;;;;;10.35;7.32;;;13.80;94.20;;;;;;5072335;28;20039;-69
2022/11/15 10:32:01;;;;;;;9.00;7.88;;;13.80;94.20;;;;;;5076090;28;20406;-68
2022/11/15 10:34:27;;;;;;;11.15;7.30;;;13.80;94.20;;;;;;5076254;28;20033;-68
2022/11/15 10:37:01;;;;;;;10.05;7.32;;;13.80;94.00;;;;;;5076194;28;20047;-68
2022/11/15 10:39:27;;;;;;;9.57;6.93;;;13.80;93.90;;;;;;5076035;28;20044;-69
2022/11/15 10:41:53;;;;;;;8.32;6.80;;;13.70;93.90;;;;;;5076051;28;20033;-68
2022/11/15 10:44:26;;;;;;;7.85;6.72;;;13.70;93.90;;;;;;5075749;28;20029;-68
2022/11/15 10:46:54;;;;;;;10.50;7.25;;;13.70;93.90;;;;;;5075897;28;20060;-68
2022/11/15 10:49:21;;;;;;;9.35;7.45;;;13.70;93.90;;;;;;5076021;28;20509;-68
2022/11/15 10:51:54;;;;;;;11.57;7.60;;;13.70;94.00;;;;;;5075552;28;20049;-68
2022/11/15 10:54:38;;;;;;;11.90;8.50;;;13.60;94.20;;;;;;5076064;28;20041;-68
2022/11/15 10:57:18;;;;;;;11.68;8.55;;;13.60;94.40;;;;;;5075867;28;20477;-78
2022/11/15 10:59:56;;;;;;;15.05;8.98;;;13.60;94.50;;;;;;5075882;28;20068;-68
2022/11/15 11:03:06;;;;;;;27.48;9.85;;;13.60;94.60;;;;;;5075455;28;20039;-68
2022/11/15 11:05:40;;;;;;;26.13;9.68;;;13.60;94.80;;;;;;5075497;28;20060;-68
2022/11/15 11:08:23;;;;;;;17.40;9.02;;;13.60;94.70;;;;;;5075519;28;20036;-68
2022/11/15 11:10:54;;;;;;;15.00;9.20;;;13.60;94.90;;;;;;5075382;28;20021;-69
2022/11/15 11:13:39;;;;;;;11.65;8.35;;;13.70;95.00;;;;;;5075366;28;20368;-69
2022/11/15 11:16:14;;;;;;;11.25;8.80;;;13.70;94.90;;;;;;5075374;28;20039;-68
2022/11/15 11:19:10;;;;;;;10.80;7.60;;;13.70;95.00;;;;;;5075275;28;20440;-68
2022/11/15 11:21:51;;;;;;;9.88;8.20;;;13.70;94.90;;;;;;5075366;28;20035;-68
2022/11/15 11:24:41;;;;;;;11.48;9.07;;;13.70;94.90;;;;;;5075032;28;20041;-69
2022/11/15 11:27:15;;;;;;;13.27;8.60;;;13.70;95.00;;;;;;5075050;28;20048;-68
2022/11/15 11:30:31;;;;;;;12.38;7.78;;;13.70;95.00;;;;;;5075041;28;20036;-68
2022/11/15 11:33:32;;;;;;;9.57;7.93;;;13.70;95.00;;;;;;5074894;28;20047;-69
2022/11/15 11:36:26;;;;;;;10.18;7.90;;;13.60;94.90;;;;;;5044087;28;20539;-68
2022/11/15 11:38:52;;;;;;;10.20;8.15;;;13.60;94.90;;;;;;5074908;28;20054;-68
2022/11/15 11:41:37;;;;;;;11.68;7.43;;;13.60;94.80;;;;;;5074409;28;20493;-68
2022/11/15 11:44:03;;;;;;;10.73;8.05;;;13.60;94.80;;;;;;5074809;28;20730;-68
2022/11/15 11:47:07;;;;;;;9.88;7.55;;;13.60;94.80;;;;;;5074585;28;20036;-73
2022/11/15 11:49:54;;;;;;;14.63;7.78;;;13.60;94.80;;;;;;5057076;28;20038;-68
2022/11/15 11:52:35;;;;;;;11.38;7.68;;;13.60;94.80;;;;;;5074223;28;20064;-68
2022/11/15 11:55:23;;;;;;;12.85;7.95;;;13.60;94.90;;;;;;5074741;28;20033;-68
2022/11/15 11:58:06;;;;;;;12.70;8.07;;;13.70;95.10;;;;;;5074532;28;20043;-68
2022/11/15 12:00:39;;;;;;;10.77;7.63;;;13.70;95.10;;;;;;5074631;28;20036;-68
2022/11/15 12:03:18;;;;;;;10.25;7.25;;;13.70;95.10;;;;;;5074619;28;20033;-69
2022/11/15 12:05:48;;;;;;;12.13;7.00;;;13.70;94.90;;;;;;5074748;28;20394;-69
2022/11/15 12:08:40;;;;;;;9.30;7.43;;;13.70;94.80;;;;;;5074148;28;20118;-68
2022/11/15 12:11:28;;;;;;;9.77;6.05;;;13.70;94.80;;;;;;5073550;28;20437;-68
2022/11/15 12:14:01;;;;;;;8.82;6.18;;;13.80;94.60;;;;;;5074192;28;20044;-73
2022/11/15 12:16:29;;;;;;;8.90;6.22;;;13.80;94.50;;;;;;5074279;28;20060;-69
2022/11/15 12:18:59;;;;;;;9.57;6.57;;;13.80;94.40;;;;;;5074633;28;20033;-69
2022/11/15 12:21:58;;;;;;;14.50;6.32;;;13.70;94.30;;;;;;5074174;28;20040;-68
2022/11/15 12:25:08;;;;;;;8.60;5.65;;;13.70;94.30;;;;;;5074191;28;20107;-68
2022/11/15 12:27:59;;;;;;;9.70;6.07;;;13.70;94.20;;;;;;5036049;28;20098;-68
2022/11/15 12:30:40;;;;;;;8.75;5.63;;;13.70;94.30;;;;;;5073317;28;20115;-68
2022/11/15 12:33:28;;;;;;;8.07;5.43;;;13.70;94.40;;;;;;5073705;28;20037;-68
2022/11/15 12:36:21;;;;;;;8.27;6.15;;;13.70;94.40;;;;;;5073478;28;20033;-68
2022/11/15 12:39:02;;;;;;;;;;;13.70;94.40;;;;;;5063144;28;20040;-67
2022/11/15 12:41:30;;;;;;;8.95;6.07;;;13.70;94.30;;;;;;5073513;28;19987;-68
2022/11/15 12:43:58;;;;;;;8.55;6.10;;;13.70;94.20;;;;;;5073671;28;20425;-68
2022/11/15 12:46:30;;;;;;;8.55;5.80;;;13.70;94.30;;;;;;5073489;28;20036;-68
2022/11/15 12:49:07;;;;;;;8.23;6.65;;;13.70;94.40;;;;;;5073545;28;20121;-67
2022/11/15 12:51:42;;;;;;;9.38;6.65;;;13.70;94.50;;;;;;5073218;28;20123;-67
2022/11/15 12:54:23;;;;;;;9.82;6.85;;;13.80;94.50;;;;;;5072885;28;20041;-67
2022/11/15 12:57:06;;;;;;;12.80;7.65;;;13.80;94.40;;;;;;5073549;28;20029;-67
2022/11/15 12:59:52;;;;;;;11.15;7.50;;;13.70;94.40;;;;;;5073210;28;20120;-68
2022/11/15 13:02:29;;;;;;;10.82;7.78;;;13.80;94.50;;;;;;5073751;28;20041;-67
2022/11/15 13:05:19;;;;;;;9.60;7.57;;;13.80;94.40;;;;;;5073523;28;20037;-68
2022/11/15 13:07:44;;;;;;;10.88;7.25;;;13.70;94.30;;;;;;5033981;28;20032;-68
2022/11/15 13:10:10;;;;;;;14.70;7.80;;;13.70;94.30;;;;;;5073362;28;20091;-67
2022/11/15 13:12:42;;;;;;;10.90;6.70;;;13.70;94.30;;;;;;5073416;28;20044;-79
2022/11/15 13:15:13;;;;;;;11.80;6.83;;;13.80;94.40;;;;;;5073071;28;20612;-68
2022/11/15 13:17:47;;;;;;;9.43;7.05;;;13.80;94.50;;;;;;5073138;28;20067;-67
2022/11/15 13:20:15;;;;;;;10.30;7.18;;;13.80;94.50;;;;;;5073432;28;20037;-68
2022/11/15 13:23:00;;;;;;;9.80;7.15;;;13.80;94.60;;;;;;5073080;28;20040;-67
2022/11/15 13:25:57;;;;;;;10.10;7.47;;;13.80;94.60;;;;;;5072899;28;20020;-82
2022/11/15 13:28:32;;;;;;;9.70;8.52;;;13.80;94.70;;;;;;5073004;28;20082;-68
2022/11/15 13:31:01;;;;;;;9.35;8.30;;;13.80;94.20;;;;;;5073048;28;20059;-68
2022/11/15 13:33:36;;;;;;;10.63;9.00;;;13.80;94.10;;;;;;5072954;28;20045;-68
2022/11/15 13:36:23;;;;;;;11.90;9.63;;;13.80;93.90;;;;;;5072987;28;20368;-68
2022/11/15 13:39:24;;;;;;;12.98;9.50;;;13.80;93.90;;;;;;5072625;28;20516;-71
2022/11/15 13:41:52;;;;;;;13.52;9.75;;;13.80;93.80;;;;;;5069185;28;20032;-68
2022/11/15 13:44:24;;;;;;;13.48;9.82;;;13.80;93.80;;;;;;5072971;28;20036;-68
2022/11/15 13:47:14;;;;;;;13.07;10.65;;;13.80;93.80;;;;;;5071354;28;20040;-68
2022/11/15 13:49:39;;;;;;;13.00;10.32;;;13.80;93.80;;;;;;5072366;28;20024;-68
2022/11/15 13:52:08;;;;;;;14.80;11.07;;;13.80;93.90;;;;;;5071638;28;20506;-68
2022/11/15 13:54:42;;;;;;;13.20;11.40;;;13.80;93.90;;;;;;5072513;28;20051;-78
2022/11/15 13:57:30;;;;;;;17.13;13.57;;;13.80;93.90;;;;;;5071526;28;20425;-68
2022/11/15 14:00:00;;;;;;;17.33;13.50;;;13.80;93.90;;;;;;5072671;28;20054;-68
2022/11/15 14:02:35;;;;;;;18.05;13.38;;;13.80;93.90;;;;;;5072622;28;20429;-69
2022/11/15 14:05:19;;;;;;;20.27;16.25;;;13.80;93.90;;;;;;5074611;28;20029;-68
2022/11/15 14:07:56;;;;;;;20.38;16.25;;;13.80;93.90;;;;;;5076736;28;20138;-68
2022/11/15 14:10:34;;;;;;;18.67;16.55;;;13.80;93.90;;;;;;5076678;28;20064;-68
2022/11/15 14:13:01;;;;;;;22.60;17.40;;;13.80;93.90;;;;;;5076746;28;20398;-68
2022/11/15 14:15:35;;;;;;;24.20;17.85;;;13.80;94.00;;;;;;5076597;28;20236;-68
2022/11/15 14:18:02;;;;;;;24.00;18.15;;;13.70;94.10;;;;;;5076755;28;20043;-68
2022/11/15 14:20:30;;;;;;;26.02;19.05;;;13.80;94.10;;;;;;5076355;28;20036;-68
2022/11/15 14:23:04;;;;;;;22.92;19.05;;;13.70;94.20;;;;;;5076539;28;20035;-68
2022/11/15 14:25:32;;;;;;;25.73;17.95;;;13.70;94.30;;;;;;5076492;28;20111;-68
2022/11/15 14:28:16;;;;;;;22.13;19.13;;;13.70;94.30;;;;;;5076283;28;20033;-68
2022/11/15 14:30:46;;;;;;;23.63;19.73;;;13.70;94.30;;;;;;5076336;28;20036;-68
2022/11/15 14:33:38;;;;;;;23.92;19.98;;;13.70;94.30;;;;;;5076016;28;20040;-68
2022/11/15 14:36:13;;;;;;;22.35;19.65;;;13.70;94.40;;;;;;5075898;28;20039;-68
2022/11/15 14:38:40;;;;;;;27.77;22.65;;;13.70;94.40;;;;;;5075885;28;20040;-68
2022/11/15 14:41:05;;;;;;;23.30;20.50;;;13.70;94.40;;;;;;5074450;28;20028;-68
2022/11/15 14:43:31;;;;;;;25.88;21.65;;;13.70;94.40;;;;;;5075539;28;20394;-68
2022/11/15 14:45:57;;;;;;;35.45;25.33;;;13.70;94.40;;;;;;5076044;28;20466;-68
2022/11/15 14:48:22;;;;;;;39.20;28.27;;;13.70;94.40;;;;;;5075779;28;20115;-68
2022/11/15 14:50:48;;;;;;;34.20;26.13;;;13.60;94.40;;;;;;5076151;28;20032;-68
2022/11/15 14:53:19;;;;;;;30.70;23.77;;;13.60;94.50;;;;;;5075813;28;20053;-68
2022/11/15 14:55:45;;;;;;;29.00;24.42;;;13.60;94.50;;;;;;5075884;28;20486;-79
2022/11/15 14:58:11;;;;;;;28.02;23.40;;;13.60;94.50;;;;;;5075919;28;20042;-68
2022/11/15 15:00:38;;;;;;;33.05;23.60;;;13.60;94.50;;;;;;5075766;28;20392;-68
2022/11/15 15:03:05;;;;;;;30.65;23.90;;;13.60;94.50;;;;;;5075834;28;20115;-68
2022/11/15 15:05:37;;;;;;;32.13;23.50;;;13.60;94.50;;;;;;5075898;28;20045;-68
2022/11/15 15:08:03;;;;;;;28.75;23.65;;;13.60;94.50;;;;;;5075768;28;20037;-68
2022/11/15 15:10:37;;;;;;;32.70;26.42;;;13.60;94.60;;;;;;5075391;28;20041;-68
2022/11/15 15:13:04;;;;;;;36.88;28.20;;;13.60;94.60;;;;;;5075561;28;20517;-68
2022/11/15 15:15:35;;;;;;;31.80;27.83;;;13.50;94.60;;;;;;5075314;28;20492;-68
2022/11/15 15:18:02;;;;;;;37.13;30.08;;;13.60;94.70;;;;;;5074952;28;20041;-67
2022/11/15 15:20:28;;;;;;;37.95;30.15;;;13.50;94.70;;;;;;5075360;28;20032;-68
2022/11/15 15:22:54;;;;;;;33.10;27.25;;;13.50;94.80;;;;;;5075118;28;20072;-68
2022/11/15 15:25:28;;;;;;;31.40;25.35;;;13.50;94.80;;;;;;5075222;28;20075;-68
2022/11/15 15:27:54;;;;;;;32.50;27.58;;;13.50;94.90;;;;;;5075077;28;20039;-68
2022/11/15 15:30:24;;;;;;;33.42;27.90;;;13.50;95.10;;;;;;5075254;28;20118;-68
2022/11/15 15:32:50;;;;;;;30.88;25.75;;;13.50;95.10;;;;;;5075112;28;20044;-67
2022/11/15 15:35:17;;;;;;;33.60;26.85;;;13.50;95.10;;;;;;5074961;28;20055;-68
2022/11/15 15:37:44;;;;;;;36.15;26.95;;;13.50;95.00;;;;;;5075104;28;20029;-68
2022/11/15 15:40:20;;;;;;;31.90;26.20;;;13.50;95.00;;;;;;5074877;28;20083;-68
2022/11/15 15:42:46;;;;;;;30.35;25.73;;;13.50;95.20;;;;;;5074975;28;20555;-68
2022/11/15 15:45:12;;;;;;;33.10;26.27;;;13.50;95.30;;;;;;5074859;28;20037;-67
2022/11/15 15:47:38;;;;;;;35.72;28.25;;;13.40;95.30;;;;;;5074851;28;20037;-68
2022/11/15 15:50:16;;;;;;;34.88;27.75;;;13.40;95.30;;;;;;5074850;28;20035;-68
2022/11/15 15:52:42;;;;;;;31.70;26.30;;;13.50;95.40;;;;;;5073525;28;20050;-68
2022/11/15 15:55:08;;;;;;;33.28;26.23;;;13.40;95.70;;;;;;5074731;28;20099;-68
2022/11/15 15:57:34;;;;;;;34.97;27.58;;;13.40;95.40;;;;;;5074544;28;20532;-68
2022/11/15 15:59:59;;;;;;;36.53;27.90;;;13.40;95.40;;;;;;5074298;28;20028;-67
2022/11/15 16:02:25;;;;;;;34.38;27.08;;;13.50;95.50;;;;;;5074404;28;20115;-68
2022/11/15 16:04:51;;;;;;;35.00;28.38;;;13.40;95.50;;;;;;5074375;28;20029;-67
2022/11/15 16:07:23;;;;;;;37.47;29.83;;;13.40;95.50;;;;;;5074224;28;20033;-67
2022/11/15 16:10:01;;;;;;;36.85;30.35;;;13.40;95.50;;;;;;5074499;28;20506;-67
2022/11/15 16:12:29;;;;;;;38.17;30.73;;;13.40;95.60;;;;;;5074458;28;20071;-67
2022/11/15 16:14:54;;;;;;;36.15;29.40;;;13.40;95.60;;;;;;5074246;28;20025;-68
2022/11/15 16:17:24;;;;;;;40.38;30.15;;;13.40;95.70;;;;;;5074235;28;20037;-67
2022/11/15 16:19:50;;;;;;;37.60;29.98;;;13.40;95.70;;;;;;5074039;28;20037;-68
2022/11/15 16:22:16;;;;;;;33.72;29.50;;;13.40;95.70;;;;;;5074063;28;20036;-67
2022/11/15 16:24:41;;;;;;;32.33;28.55;;;13.40;95.80;;;;;;5074111;28;20451;-68
2022/11/15 16:27:19;;;;;;;41.50;31.33;;;13.40;95.80;;;;;;5074016;28;20407;-68
2022/11/15 16:29:45;;;;;;;36.28;30.85;;;13.40;95.80;;;;;;5074017;28;20032;-70
2022/11/15 16:32:12;;;;;;;39.58;30.25;;;13.40;95.80;;;;;;5073914;28;20083;-68
2022/11/15 16:34:38;;;;;;;42.42;32.25;;;13.40;95.80;;;;;;5073969;28;20527;-68
2022/11/15 16:37:04;;;;;;;40.33;31.00;;;13.40;95.90;;;;;;5074182;28;20033;-68
2022/11/15 16:39:31;;;;;;;36.97;30.73;;;13.40;95.90;;;;;;5073918;28;20043;-68
2022/11/15 16:41:57;;;;;;;39.55;32.08;;;13.40;95.90;;;;;;5073814;28;20531;-69
2022/11/15 16:44:23;;;;;;;41.40;31.83;;;13.40;96.00;;;;;;5073956;28;20386;-68
2022/11/15 16:46:50;;;;;;;39.90;31.60;;;13.40;96.00;;;;;;5073765;28;20029;-68
2022/11/15 16:49:17;;;;;;;36.47;30.65;;;13.40;96.10;;;;;;5073583;28;20033;-67
2022/11/15 16:51:45;;;;;;;43.92;35.33;;;13.40;96.10;;;;;;5073375;28;20040;-68
2022/11/15 16:54:11;;;;;;;40.13;33.63;;;13.40;96.20;;;;;;5073721;28;20067;-68
2022/11/15 16:56:38;;;;;;;42.15;34.15;;;13.40;96.20;;;;;;5071375;28;20409;-68
2022/11/15 16:59:04;;;;;;;42.10;34.55;;;13.40;96.20;;;;;;5070565;28;20067;-68
2022/11/15 17:01:35;;;;;;;39.60;31.50;;;13.40;96.20;;;;;;5070623;28;20036;-67
2022/11/15 17:04:11;;;;;;;44.13;35.72;;;13.40;96.30;;;;;;5072985;28;20040;-68
2022/11/15 17:06:40;;;;;;;45.75;34.67;;;13.40;96.30;;;;;;5073049;28;20486;-68
2022/11/15 17:09:22;;;;;;;42.40;33.83;;;13.40;96.30;;;;;;5072511;28;20024;-68
2022/11/15 17:11:48;;;;;;;36.75;31.40;;;13.40;96.30;;;;;;5072123;28;20378;-68
2022/11/15 17:14:15;;;;;;;37.40;30.70;;;13.40;96.30;;;;;;5072278;28;20032;-68
2022/11/15 17:16:43;;;;;;;36.33;30.52;;;13.40;96.30;;;;;;5072191;28;20490;-67
2022/11/15 17:19:19;;;;;;;42.85;31.88;;;13.40;96.30;;;;;;5072396;28;20040;-67
2022/11/15 17:21:45;;;;;;;38.72;33.30;;;13.40;96.30;;;;;;5072467;28;20429;-68
2022/11/15 17:24:11;;;;;;;40.75;32.92;;;13.40;96.30;;;;;;5073077;28;20033;-81
2022/11/15 17:26:38;;;;;;;41.03;32.75;;;13.30;96.30;;;;;;5072598;28;20395;-68
2022/11/15 17:29:06;;;;;;;41.65;31.20;;;13.30;96.30;;;;;;5072644;28;20032;-68
2022/11/15 17:31:33;;;;;;;43.55;30.73;;;13.40;96.50;;;;;;5072467;28;20432;-68
2022/11/15 17:34:01;;;;;;;43.17;31.02;;;13.40;96.50;;;;;;5072237;28;20403;-68
2022/11/15 17:36:27;;;;;;;40.40;31.70;;;13.40;96.60;;;;;;5072969;28;20037;-68
2022/11/15 17:38:53;;;;;;;40.03;31.92;;;13.30;96.60;;;;;;5072504;28;20048;-68
2022/11/15 17:41:20;;;;;;;42.83;32.60;;;13.30;96.60;;;;;;5072402;28;20399;-68
2022/11/15 17:43:46;;;;;;;43.40;33.45;;;13.30;96.60;;;;;;5072666;28;20040;-68
2022/11/15 17:46:14;;;;;;;39.42;32.30;;;13.30;96.60;;;;;;5072833;28;20108;-68
2022/11/15 17:48:40;;;;;;;40.75;32.58;;;13.30;96.70;;;;;;5072488;28;20048;-68
2022/11/15 17:51:09;;;;;;;40.33;31.13;;;13.30;96.70;;;;;;5072913;28;20490;-68
2022/11/15 17:53:36;;;;;;;44.78;32.80;;;13.30;96.70;;;;;;5072539;28;20052;-68
2022/11/15 17:56:09;;;;;;;40.30;31.55;;;13.40;96.80;;;;;;5072610;28;20398;-68
2022/11/15 17:58:35;;;;;;;42.60;32.38;;;13.40;96.90;;;;;;5072747;28;20032;-68
2022/11/15 18:01:29;;;;;;;43.42;34.20;;;13.40;97.00;;;;;;5072608;28;20052;-68
2022/11/15 18:03:56;;;;;;;43.00;33.80;;;13.40;97.00;;;;;;5069227;28;20037;-69
2022/11/15 18:06:23;;;;;;;45.10;35.15;;;13.30;96.90;;;;;;5072484;28;20040;-68
2022/11/15 18:08:51;;;;;;;44.63;33.70;;;13.30;96.80;;;;;;5072478;28;20044;-68
2022/11/15 18:11:25;;;;;;;44.42;33.95;;;13.30;96.80;;;;;;5072202;28;20028;-68
2022/11/15 18:13:53;;;;;;;47.15;35.63;;;13.30;96.80;;;;;;5072176;28;20095;-68
2022/11/15 18:16:21;;;;;;;41.30;33.70;;;13.30;96.90;;;;;;5072399;28;20108;-68
2022/11/15 18:18:47;;;;;;;46.47;34.92;;;13.20;96.90;;;;;;5072092;28;20036;-68
2022/11/15 18:21:21;;;;;;;43.25;33.00;;;13.30;96.80;;;;;;5072262;28;20056;-68
2022/11/15 18:23:51;;;;;;;42.70;33.33;;;13.20;96.80;;;;;;5072453;28;20080;-68
2022/11/15 18:26:17;;;;;;;39.80;32.33;;;13.30;96.80;;;;;;5072093;28;20537;-68
2022/11/15 18:28:47;;;;;;;43.35;33.28;;;13.20;96.60;;;;;;5072343;28;20064;-68
2022/11/15 18:31:20;;;;;;;47.53;35.83;;;13.20;96.70;;;;;;5072424;28;20037;-68
2022/11/15 18:33:46;;;;;;;46.38;35.97;;;13.20;96.80;;;;;;5072202;28;20053;-68
2022/11/15 18:36:15;;;;;;;45.40;35.13;;;13.20;96.90;;;;;;5072199;28;20535;-67
2022/11/15 18:38:41;;;;;;;44.40;35.65;;;13.20;96.90;;;;;;5072309;28;20436;-68
2022/11/15 18:41:19;;;;;;;45.20;35.53;;;13.20;96.90;;;;;;5072429;28;20053;-68
2022/11/15 18:43:49;;;;;;;50.00;36.95;;;13.20;96.90;;;;;;5071030;28;20037;-68
2022/11/15 18:46:18;;;;;;;46.47;35.95;;;13.20;96.90;;;;;;5072226;28;20032;-83
2022/11/15 18:48:44;;;;;;;44.45;36.20;;;13.20;97.00;;;;;;5072103;28;20033;-68
2022/11/15 18:51:16;;;;;;;44.78;34.80;;;13.20;97.00;;;;;;5072628;28;20028;-68
2022/11/15 18:53:43;;;;;;;43.15;34.17;;;13.20;97.00;;;;;;5075922;28;20048;-67
2022/11/15 18:56:11;;;;;;;48.65;35.47;;;13.20;97.00;;;;;;5075586;28;20082;-67
2022/11/15 18:58:39;;;;;;;44.95;34.70;;;13.20;97.00;;;;;;5075862;28;20033;-68
2022/11/15 19:01:09;;;;;;;48.70;39.20;;;13.20;97.00;;;;;;5075923;28;20036;-89
2022/11/15 19:03:36;;;;;;;49.58;38.78;;;13.20;97.00;;;;;;5075566;28;20033;-68
2022/11/15 19:06:03;;;;;;;45.35;35.00;;;13.20;97.10;;;;;;5075576;28;20101;-68
2022/11/15 19:08:29;;;;;;;46.55;37.00;;;13.20;97.10;;;;;;5075815;28;20087;-68
2022/11/15 19:10:55;;;;;;;48.22;36.60;;;13.20;97.20;;;;;;5075647;28;20029;-74
2022/11/15 19:13:20;;;;;;;47.22;37.00;;;13.20;97.20;;;;;;5075546;28;20119;-68
2022/11/15 19:15:46;;;;;;;48.28;36.67;;;13.20;97.30;;;;;;5075275;28;20029;-68
2022/11/15 19:18:11;;;;;;;49.42;36.20;;;13.20;97.30;;;;;;5075154;28;20041;-68
2022/11/15 19:20:37;;;;;;;53.28;38.40;;;13.20;97.40;;;;;;5075388;28;20056;-68
2022/11/15 19:23:03;;;;;;;55.40;42.40;;;13.20;97.40;;;;;;5075295;28;20032;-67
2022/11/15 19:25:28;;;;;;;60.88;44.05;;;13.20;97.40;;;;;;5074639;28;20051;-68
2022/11/15 19:27:54;;;;;;;52.22;39.67;;;13.20;97.40;;;;;;5075161;28;20094;-68
2022/11/15 19:30:20;;;;;;;48.85;38.03;;;13.20;97.40;;;;;;5075245;28;20154;-68
2022/11/15 19:32:45;;;;;;;52.00;38.10;;;13.20;97.40;;;;;;5074877;28;20079;-68
2022/11/15 19:35:11;;;;;;;53.80;38.95;;;13.20;97.50;;;;;;5074991;28;20116;-78
2022/11/15 19:37:37;;;;;;;47.22;37.38;;;13.20;97.50;;;;;;5075207;28;20036;-68
2022/11/15 19:40:03;;;;;;;47.25;37.05;;;13.20;97.40;;;;;;5075022;28;20032;-68
2022/11/15 19:42:28;;;;;;;42.10;33.90;;;13.20;97.40;;;;;;5075051;28;20115;-68
2022/11/15 19:44:54;;;;;;;46.67;35.50;;;13.20;97.50;;;;;;5074903;28;20033;-68
2022/11/15 19:47:20;;;;;;;44.13;33.95;;;13.20;97.40;;;;;;5074685;28;20037;-68
2022/11/15 19:49:45;;;;;;;38.70;32.42;;;13.20;97.50;;;;;;5074556;28;20033;-68
2022/11/15 19:52:11;;;;;;;39.75;32.53;;;13.10;97.40;;;;;;5073215;28;20055;-67
2022/11/15 19:54:37;;;;;;;39.42;31.85;;;13.20;97.50;;;;;;5073440;28;20045;-68
2022/11/15 19:57:02;;;;;;;42.83;32.05;;;13.20;97.50;;;;;;5074351;28;20541;-68
2022/11/15 19:59:28;;;;;;;44.58;33.63;;;13.20;97.50;;;;;;5074759;28;20109;-68
2022/11/15 20:01:54;;;;;;;40.72;32.47;;;13.20;97.50;;;;;;5074107;28;20086;-68
2022/11/15 20:04:19;;;;;;;44.10;34.30;;;13.20;97.40;;;;;;5074026;28;20025;-68
2022/11/15 20:06:45;;;;;;;41.88;32.00;;;13.20;97.40;;;;;;5074387;28;20032;-68
2022/11/15 20:09:13;;;;;;;41.78;32.55;;;13.20;97.30;;;;;;5074527;28;20032;-68
2022/11/15 20:11:39;;;;;;;42.42;32.08;;;13.20;97.30;;;;;;5074201;28;20493;-68
2022/11/15 20:14:06;;;;;;;41.33;32.03;;;13.20;97.30;;;;;;5074051;28;20044;-68
2022/11/15 20:16:32;;;;;;;39.53;30.33;;;13.10;97.30;;;;;;5073996;28;20539;-68
2022/11/15 20:18:58;;;;;;;39.13;31.55;;;13.20;97.60;;;;;;5073715;28;20637;-68
2022/11/15 20:21:24;;;;;;;38.42;31.52;;;13.20;97.30;;;;;;5074360;28;20513;-68
2022/11/15 20:23:50;;;;;;;40.05;31.35;;;13.20;97.30;;;;;;5074232;28;20111;-68
2022/11/15 20:26:16;;;;;;;40.55;30.83;;;13.20;97.30;;;;;;5074041;28;20417;-68
2022/11/15 20:28:43;;;;;;;37.78;30.70;;;13.20;97.40;;;;;;5073948;28;20044;-68
2022/11/15 20:31:10;;;;;;;36.47;29.48;;;13.10;97.40;;;;;;5074083;28;20093;-68
2022/11/15 20:33:35;;;;;;;36.65;29.17;;;13.20;97.30;;;;;;5073605;28;20045;-69
2022/11/15 20:36:11;;;;;;;40.80;29.95;;;13.20;97.30;;;;;;5074022;28;20155;-69
2022/11/15 20:38:36;;;;;;;43.15;30.23;;;13.10;97.30;;;;;;5073771;28;20032;-68
2022/11/15 20:41:02;;;;;;;38.88;30.50;;;13.10;97.40;;;;;;5073620;28;20541;-68
2022/11/15 20:43:28;;;;;;;38.53;32.22;;;13.10;97.40;;;;;;5073612;28;20077;-68
2022/11/15 20:45:54;;;;;;;41.13;32.75;;;13.10;97.40;;;;;;5073667;28;20517;-68
2022/11/15 20:48:20;;;;;;;40.47;30.88;;;13.10;97.50;;;;;;5073308;28;20044;-68
2022/11/15 20:50:46;;;;;;;38.25;30.05;;;13.10;97.50;;;;;;5073270;28;20036;-68
2022/11/15 20:53:14;;;;;;;35.53;29.80;;;13.10;97.50;;;;;;5073294;28;20525;-68
2022/11/15 20:55:42;;;;;;;39.28;30.73;;;13.10;97.60;;;;;;5073061;28;20043;-68
2022/11/15 20:58:08;;;;;;;44.45;30.85;;;13.10;97.60;;;;;;5073472;28;20111;-69
2022/11/15 21:00:35;;;;;;;38.65;30.45;;;13.10;97.60;;;;;;5073491;28;20036;-68
2022/11/15 21:03:05;;;;;;;39.00;32.05;;;13.10;97.60;;;;;;5073428;28;20032;-68
2022/11/15 21:05:33;;;;;;;37.30;31.10;;;13.10;97.60;;;;;;5073133;28;20501;-68
2022/11/15 21:07:58;;;;;;;39.60;30.83;;;13.10;97.60;;;;;;5073406;28;20033;-68
2022/11/15 21:13:08;;;;;;;38.03;30.15;;;13.10;97.80;;;;;;5073092;28;20051;-68
2022/11/15 21:15:34;;;;;;;41.60;31.90;;;13.10;97.60;;;;;;5072669;28;20111;-68
2022/11/15 21:17:59;;;;;;;42.38;32.22;;;13.10;97.50;;;;;;5072905;28;20036;-68
2022/11/15 21:20:25;;;;;;;41.13;32.35;;;13.10;97.50;;;;;;5072935;28;20024;-68
2022/11/15 21:22:51;;;;;;;41.40;32.97;;;13.10;97.60;;;;;;5072922;28;20086;-68